Time;durP1;ratioP1;P1;durP2;ratioP2;P2;SDS_P1;SDS_P2;PMS_P1;PMS_P2;Temp;Humidity;BMP_temperature;BMP_pressure;BME280_temperature;BME280_humidity;BME280_pressure;Samples;Min_cycle;Max_cycle;Signal;HPM_P1;HPM_P2
2022/12/02 00:00:06;;;;;;;0.10;0.10;;;14.40;77.50;;;;;;4190538;28;20147;-61
2022/12/02 00:02:47;;;;;;;0.00;0.00;;;14.30;78.30;;;;;;4161405;28;20500;-60
2022/12/02 00:05:31;;;;;;;0.00;0.00;;;14.30;79.10;;;;;;4178306;28;20499;-61
2022/12/02 00:08:16;;;;;;;1.95;1.85;;;14.30;78.90;;;;;;4177786;28;20492;-61
2022/12/02 00:11:01;;;;;;;0.17;0.17;;;14.30;79.50;;;;;;4197173;28;20062;-61
2022/12/02 00:13:44;;;;;;;0.90;0.90;;;14.30;80.10;;;;;;4211034;28;20148;-61
2022/12/02 00:16:26;;;;;;;0.25;0.25;;;14.20;80.00;;;;;;4210660;28;20051;-60
2022/12/02 00:19:07;;;;;;;0.10;0.10;;;14.20;78.50;;;;;;4193547;28;20051;-61
2022/12/02 00:21:50;;;;;;;0.00;0.00;;;14.20;79.70;;;;;;4201578;28;20050;-61
2022/12/02 00:24:30;;;;;;;0.28;0.28;;;14.20;79.90;;;;;;4210718;28;20055;-61
2022/12/02 00:27:12;;;;;;;0.00;0.00;;;14.20;79.30;;;;;;4211079;28;20047;-60
2022/12/02 00:29:54;;;;;;;0.52;0.52;;;14.10;78.50;;;;;;4209718;28;20521;-60
2022/12/02 00:32:35;;;;;;;6.72;1.58;;;14.10;76.00;;;;;;4176452;28;20138;-61
2022/12/02 00:35:16;;;;;;;0.00;0.00;;;14.10;76.60;;;;;;4177250;28;20060;-60
2022/12/02 00:37:58;;;;;;;1.08;1.08;;;14.10;75.70;;;;;;4177287;28;20059;-61
2022/12/02 00:40:38;;;;;;;2.92;2.28;;;14.10;78.50;;;;;;4185936;28;20055;-61
2022/12/02 00:46:34;;;;;;;0.05;0.05;;;14.30;79.00;;;;;;4208564;28;20177;-60
2022/12/02 00:49:16;;;;;;;0.30;0.30;;;14.30;79.00;;;;;;4202830;28;20174;-60
2022/12/02 00:51:57;;;;;;;0.65;0.65;;;14.40;77.90;;;;;;4178376;28;20060;-60
2022/12/02 00:54:39;;;;;;;0.05;0.05;;;14.30;77.50;;;;;;4177086;28;20051;-61
2022/12/02 00:57:19;;;;;;;0.20;0.20;;;14.30;77.80;;;;;;4175802;28;20068;-61
2022/12/02 01:00:00;;;;;;;7.68;1.95;;;14.30;77.40;;;;;;4161398;28;20135;-61
2022/12/02 01:02:42;;;;;;;1.17;1.07;;;14.30;75.70;;;;;;4192375;28;20059;-57
2022/12/02 01:05:23;;;;;;;0.00;0.00;;;14.30;78.20;;;;;;4193733;28;20119;-55
2022/12/02 01:08:04;;;;;;;1.70;1.60;;;14.40;78.30;;;;;;4192037;28;20129;-56
2022/12/02 01:10:45;;;;;;;0.85;0.85;;;14.50;78.00;;;;;;4192883;28;20403;-57
2022/12/02 01:13:27;;;;;;;0.45;0.45;;;14.60;77.50;;;;;;4193154;28;20051;-60
2022/12/02 01:16:08;;;;;;;;;;;14.60;77.10;;;;;;4193721;28;20122;-61
2022/12/02 01:18:50;;;;;;;0.10;0.10;;;14.70;77.00;;;;;;4183959;28;20287;-60
2022/12/02 01:21:30;;;;;;;1.45;0.38;;;14.70;77.00;;;;;;4192126;28;20075;-61
2022/12/02 01:24:11;;;;;;;0.50;0.50;;;14.70;76.80;;;;;;4208910;28;20125;-61
2022/12/02 01:26:52;;;;;;;0.08;0.08;;;14.70;76.60;;;;;;4209969;28;20046;-60
2022/12/02 01:29:33;;;;;;;4.78;1.25;;;14.80;76.50;;;;;;4208478;28;20490;-61
2022/12/02 01:32:14;;;;;;;0.30;0.30;;;14.80;76.60;;;;;;4176618;28;20048;-61
2022/12/02 01:34:57;;;;;;;1.10;1.10;;;14.90;76.10;;;;;;4176553;28;20056;-61
2022/12/02 01:37:37;;;;;;;11.27;1.20;;;14.90;75.80;;;;;;4175516;28;20051;-61
2022/12/02 01:40:21;;;;;;;3.85;1.65;;;14.90;76.20;;;;;;4192004;28;20534;-61
2022/12/02 01:43:02;;;;;;;0.65;0.65;;;14.90;75.20;;;;;;4209352;28;20181;-60
2022/12/02 01:45:43;;;;;;;1.98;1.88;;;15.00;75.20;;;;;;4209640;28;20063;-60
2022/12/02 01:48:23;;;;;;;0.70;0.70;;;15.00;75.30;;;;;;4196648;28;20183;-60
2022/12/02 01:51:07;;;;;;;1.52;0.55;;;15.00;75.20;;;;;;4193671;28;20635;-60
2022/12/02 01:53:47;;;;;;;0.00;0.00;;;15.10;74.70;;;;;;4194218;28;20047;-60
2022/12/02 01:56:28;;;;;;;0.77;0.77;;;15.10;74.50;;;;;;4208915;28;20054;-61
2022/12/02 01:59:12;;;;;;;4.00;1.17;;;15.20;74.30;;;;;;4207967;28;20593;-61
2022/12/02 02:01:53;;;;;;;3.83;2.45;;;15.30;74.20;;;;;;4175577;28;20530;-60
2022/12/02 02:04:35;;;;;;;0.65;0.47;;;15.30;73.90;;;;;;4178886;28;20238;-61
2022/12/02 02:07:17;;;;;;;0.30;0.30;;;15.30;73.80;;;;;;4209002;28;20448;-60
2022/12/02 02:09:59;;;;;;;1.00;1.00;;;15.40;73.30;;;;;;4208468;28;20504;-60
2022/12/02 02:12:40;;;;;;;1.88;1.75;;;15.40;72.80;;;;;;4207780;28;20093;-60
2022/12/02 02:15:22;;;;;;;0.28;0.28;;;15.40;72.30;;;;;;4207167;28;20359;-60
2022/12/02 02:18:03;;;;;;;1.48;1.48;;;15.40;72.30;;;;;;4198952;28;20055;-61
2022/12/02 02:20:46;;;;;;;0.20;0.20;;;15.40;72.30;;;;;;4203504;28;20406;-61
2022/12/02 02:23:28;;;;;;;0.75;0.60;;;15.50;72.20;;;;;;4208927;28;20402;-61
2022/12/02 02:26:09;;;;;;;5.72;1.42;;;15.60;71.90;;;;;;4208178;28;20071;-61
2022/12/02 02:28:50;;;;;;;0.10;0.10;;;15.70;71.70;;;;;;4207656;28;20055;-61
2022/12/02 02:31:31;;;;;;;0.63;0.63;;;15.70;71.70;;;;;;4174664;28;20056;-60
2022/12/02 02:34:12;;;;;;;;;;;15.70;71.50;;;;;;4174950;28;20107;-60
2022/12/02 02:36:53;;;;;;;0.17;0.17;;;15.80;71.30;;;;;;4174595;28;19931;-61
2022/12/02 02:39:36;;;;;;;0.00;0.00;;;15.80;71.30;;;;;;4180303;28;20054;-61
2022/12/02 02:42:17;;;;;;;5.82;1.10;;;15.80;71.30;;;;;;4208579;28;20130;-60
2022/12/02 02:44:58;;;;;;;0.15;0.15;;;15.80;71.20;;;;;;4174388;28;20055;-61
2022/12/02 02:47:40;;;;;;;;;;;15.80;71.50;;;;;;4204926;28;20403;-61
2022/12/02 02:50:21;;;;;;;0.20;0.20;;;15.80;71.60;;;;;;4191714;28;20313;-60
2022/12/02 02:53:03;;;;;;;0.55;0.55;;;15.70;71.70;;;;;;4190502;27;20498;-61
2022/12/02 02:55:45;;;;;;;;;;;15.70;72.10;;;;;;4209039;28;20098;-61
2022/12/02 02:58:27;;;;;;;0.65;0.65;;;15.60;72.40;;;;;;4207266;28;20069;-61
2022/12/02 03:01:12;;;;;;;1.10;1.10;;;15.60;72.70;;;;;;4187972;28;20055;-60
2022/12/02 03:03:56;;;;;;;0.40;0.40;;;15.70;72.50;;;;;;4191140;28;20059;-61
2022/12/02 03:06:40;;;;;;;0.08;0.08;;;15.80;72.20;;;;;;4190164;28;20152;-61
2022/12/02 03:09:23;;;;;;;0.00;0.00;;;15.80;72.10;;;;;;4190792;28;20055;-61
2022/12/02 03:12:06;;;;;;;0.15;0.15;;;15.80;72.00;;;;;;4158092;28;20056;-60
2022/12/02 03:14:47;;;;;;;0.00;0.00;;;15.80;72.80;;;;;;4157079;28;20060;-61
2022/12/02 03:17:29;;;;;;;0.00;0.00;;;15.90;71.60;;;;;;4180512;28;20055;-60
2022/12/02 03:20:11;;;;;;;2.00;1.83;;;15.90;71.20;;;;;;4194575;28;20067;-61
2022/12/02 03:22:52;;;;;;;0.00;0.00;;;16.00;71.10;;;;;;4191753;28;20078;-61
2022/12/02 03:25:33;;;;;;;0.00;0.00;;;15.90;71.10;;;;;;4190140;28;20454;-61
2022/12/02 03:28:15;;;;;;;0.30;0.30;;;16.00;71.10;;;;;;4191691;28;20055;-63
2022/12/02 03:30:56;;;;;;;0.40;0.40;;;16.00;70.90;;;;;;4203472;28;20416;-61
2022/12/02 03:33:38;;;;;;;0.10;0.10;;;16.00;70.60;;;;;;4208142;28;20051;-61
2022/12/02 03:36:19;;;;;;;0.40;0.40;;;16.00;70.40;;;;;;4191852;28;20055;-60
2022/12/02 03:39:00;;;;;;;0.63;0.63;;;16.00;70.50;;;;;;4190988;28;20056;-61
2022/12/02 03:41:41;;;;;;;1.02;1.02;;;16.00;70.80;;;;;;4172726;28;20064;-61
2022/12/02 03:44:24;;;;;;;0.08;0.08;;;16.00;70.90;;;;;;4191906;28;20051;-61
2022/12/02 03:47:05;;;;;;;0.45;0.45;;;16.00;70.50;;;;;;4190037;28;20178;-61
2022/12/02 03:49:46;;;;;;;0.00;0.00;;;16.10;71.60;;;;;;4190734;28;20399;-60
2022/12/02 03:52:28;;;;;;;0.30;0.30;;;16.10;70.30;;;;;;4191219;28;20055;-60
2022/12/02 03:55:10;;;;;;;1.38;1.38;;;16.10;70.30;;;;;;4191480;28;20064;-60
2022/12/02 03:57:51;;;;;;;0.38;0.38;;;16.10;70.50;;;;;;4191357;28;20481;-61
2022/12/02 04:00:33;;;;;;;1.05;1.05;;;16.10;70.60;;;;;;4200188;28;20051;-61
2022/12/02 04:03:14;;;;;;;0.68;0.68;;;16.10;70.60;;;;;;4174744;28;20130;-61
2022/12/02 04:05:55;;;;;;;0.32;0.32;;;16.00;70.40;;;;;;4175147;28;20220;-61
2022/12/02 04:08:36;;;;;;;0.13;0.13;;;16.00;70.40;;;;;;4168892;28;20384;-61
2022/12/02 04:11:17;;;;;;;2.42;2.28;;;16.10;70.40;;;;;;4174616;28;20611;-60
2022/12/02 04:13:58;;;;;;;0.10;0.10;;;16.10;70.40;;;;;;4174817;28;20186;-57
2022/12/02 04:16:40;;;;;;;0.00;0.00;;;16.10;70.40;;;;;;4173719;28;20056;-58
2022/12/02 04:19:21;;;;;;;0.45;0.45;;;16.00;70.70;;;;;;4199008;27;20051;-59
2022/12/02 04:22:02;;;;;;;0.00;0.00;;;16.10;70.70;;;;;;4210291;28;20502;-59
2022/12/02 04:24:43;;;;;;;0.00;0.00;;;16.10;70.60;;;;;;4210650;28;20058;-57
2022/12/02 04:27:24;;;;;;;0.00;0.00;;;16.00;70.50;;;;;;4193727;28;20489;-59
2022/12/02 04:30:06;;;;;;;0.15;0.15;;;16.00;70.80;;;;;;4181706;28;20052;-58
2022/12/02 04:32:48;;;;;;;0.15;0.15;;;16.00;71.30;;;;;;4193873;28;20050;-58
2022/12/02 04:35:29;;;;;;;1.73;1.70;;;16.00;71.20;;;;;;4192828;28;20502;-58
2022/12/02 04:38:10;;;;;;;4.57;0.93;;;16.10;71.10;;;;;;4193124;28;20141;-56
2022/12/02 04:40:52;;;;;;;0.00;0.00;;;16.10;71.10;;;;;;4188666;28;20190;-57
2022/12/02 04:43:33;;;;;;;0.10;0.10;;;16.10;71.10;;;;;;4184679;28;20401;-56
2022/12/02 04:46:14;;;;;;;0.15;0.15;;;16.10;71.20;;;;;;4177286;28;20048;-57
2022/12/02 04:48:56;;;;;;;0.08;0.08;;;16.00;71.10;;;;;;4201020;28;20106;-57
2022/12/02 04:51:37;;;;;;;0.00;0.00;;;16.00;71.30;;;;;;4186712;28;20047;-57
2022/12/02 04:54:18;;;;;;;0.17;0.17;;;16.00;71.50;;;;;;4193858;28;20048;-58
2022/12/02 04:56:58;;;;;;;0.90;0.90;;;16.00;71.20;;;;;;4192317;28;20067;-58
2022/12/02 04:59:40;;;;;;;0.00;0.00;;;16.10;71.20;;;;;;4208869;27;20059;-57
2022/12/02 05:02:21;;;;;;;1.30;1.20;;;16.10;71.10;;;;;;4193703;28;20146;-55
2022/12/02 05:05:04;;;;;;;5.72;2.83;;;16.10;71.20;;;;;;4193514;28;20053;-57
2022/12/02 05:07:44;;;;;;;5.20;1.13;;;16.10;71.40;;;;;;4192624;28;20063;-57
2022/12/02 05:10:26;;;;;;;0.32;0.32;;;16.00;71.50;;;;;;4175375;28;20568;-55
2022/12/02 05:13:07;;;;;;;0.65;0.65;;;15.90;72.40;;;;;;4176965;28;20048;-56
2022/12/02 05:15:48;;;;;;;1.15;1.08;;;15.90;71.70;;;;;;4176575;28;20471;-55
2022/12/02 05:18:29;;;;;;;0.20;0.20;;;15.90;71.80;;;;;;4194229;28;20060;-57
2022/12/02 05:21:11;;;;;;;0.47;0.47;;;15.80;72.00;;;;;;4192976;28;20052;-57
2022/12/02 05:23:52;;;;;;;0.50;0.50;;;15.80;72.30;;;;;;4187426;28;20059;-57
2022/12/02 05:26:33;;;;;;;0.32;0.32;;;15.80;72.50;;;;;;4193251;28;20040;-56
2022/12/02 05:29:13;;;;;;;0.03;0.03;;;15.80;72.40;;;;;;4179065;28;20052;-56
2022/12/02 05:31:54;;;;;;;0.93;0.90;;;15.80;72.30;;;;;;4192705;28;20827;-56
2022/12/02 05:34:35;;;;;;;0.00;0.00;;;15.90;72.20;;;;;;4192689;28;20067;-56
2022/12/02 05:37:18;;;;;;;0.47;0.32;;;15.90;72.30;;;;;;4191969;28;20048;-56
2022/12/02 05:39:59;;;;;;;1.65;1.55;;;15.90;72.30;;;;;;4191999;28;20063;-56
2022/12/02 05:42:40;;;;;;;0.10;0.10;;;15.90;72.20;;;;;;4183308;28;20055;-57
2022/12/02 05:45:23;;;;;;;0.15;0.15;;;16.00;72.10;;;;;;4209177;27;20046;-56
2022/12/02 05:48:10;;;;;;;0.30;0.30;;;16.00;72.00;;;;;;4208366;27;20081;-57
2022/12/02 05:50:53;;;;;;;4.47;1.35;;;16.00;71.90;;;;;;4164219;28;20060;-56
2022/12/02 05:53:36;;;;;;;0.15;0.15;;;16.00;71.80;;;;;;4176020;28;20420;-57
2022/12/02 05:56:24;;;;;;;0.63;0.63;;;16.00;71.80;;;;;;4191061;28;20158;-56
2022/12/02 05:59:13;;;;;;;0.10;0.10;;;16.00;71.80;;;;;;4191255;28;20466;-56
2022/12/02 06:01:55;;;;;;;0.30;0.30;;;15.90;71.80;;;;;;4196692;28;20390;-57
2022/12/02 06:04:37;;;;;;;0.77;0.47;;;15.90;72.10;;;;;;4192393;28;20040;-57
2022/12/02 06:07:18;;;;;;;0.50;0.50;;;15.90;72.20;;;;;;4192416;28;20052;-57
2022/12/02 06:10:00;;;;;;;0.98;0.98;;;15.90;72.00;;;;;;4187316;28;20072;-56
2022/12/02 06:12:41;;;;;;;0.57;0.57;;;16.00;72.00;;;;;;4187891;28;20117;-57
2022/12/02 06:15:22;;;;;;;0.75;0.75;;;16.00;71.70;;;;;;4208819;27;20082;-56
2022/12/02 06:18:10;;;;;;;1.75;1.65;;;16.00;71.30;;;;;;4209213;27;20144;-57
2022/12/02 06:20:54;;;;;;;1.20;1.20;;;16.00;71.10;;;;;;4207576;27;20054;-57
2022/12/02 06:23:35;;;;;;;1.05;0.63;;;15.90;71.10;;;;;;4190249;28;20059;-55
2022/12/02 06:26:19;;;;;;;2.10;2.03;;;15.90;71.40;;;;;;4192057;28;20585;-57
2022/12/02 06:29:03;;;;;;;0.85;0.85;;;15.90;71.40;;;;;;4191902;28;20294;-54
2022/12/02 06:31:44;;;;;;;0.13;0.13;;;16.00;71.20;;;;;;4181233;28;20560;-57
2022/12/02 06:34:36;;;;;;;0.97;0.97;;;16.00;70.90;;;;;;4208122;28;20601;-56
2022/12/02 06:37:21;;;;;;;0.28;0.28;;;16.10;70.90;;;;;;4208118;28;20129;-58
2022/12/02 06:40:18;;;;;;;0.68;0.68;;;16.10;70.70;;;;;;4207547;28;20116;-59
2022/12/02 06:43:15;;;;;;;0.52;0.52;;;16.10;70.30;;;;;;4205677;28;20051;-58
2022/12/02 06:45:56;;;;;;;0.00;0.00;;;16.00;70.90;;;;;;4208132;28;20096;-57
2022/12/02 06:48:37;;;;;;;0.60;0.60;;;16.10;70.70;;;;;;4208495;28;20047;-57
2022/12/02 06:51:19;;;;;;;1.20;1.10;;;16.10;70.70;;;;;;4207124;28;20382;-57
2022/12/02 06:54:10;;;;;;;0.10;0.10;;;16.00;70.80;;;;;;4198349;28;20410;-57
2022/12/02 06:56:52;;;;;;;0.00;0.00;;;16.00;70.70;;;;;;4190154;28;22982;-56
2022/12/02 06:59:34;;;;;;;;;;;15.90;70.70;;;;;;4192109;28;20055;-58
2022/12/02 07:02:21;;;;;;;;;;;15.80;70.90;;;;;;4191825;28;19939;-57
2022/12/02 07:05:02;;;;;;;4.47;1.20;;;15.70;70.50;;;;;;4181994;28;20058;-58
2022/12/02 07:07:43;;;;;;;1.02;1.02;;;15.60;70.30;;;;;;4191673;28;20506;-58
2022/12/02 07:10:28;;;;;;;1.50;1.17;;;15.50;70.40;;;;;;4175034;28;20044;-58
2022/12/02 07:13:17;;;;;;;0.73;0.73;;;15.50;70.70;;;;;;4174811;28;20059;-58
2022/12/02 07:15:59;;;;;;;0.38;0.38;;;15.50;70.60;;;;;;4180974;28;20055;-57
2022/12/02 07:18:41;;;;;;;0.68;0.68;;;15.50;70.10;;;;;;4191462;28;20189;-58
2022/12/02 07:21:22;;;;;;;0.63;0.63;;;15.40;69.50;;;;;;4191201;28;20047;-58
2022/12/02 07:24:02;;;;;;;0.50;0.50;;;15.40;69.60;;;;;;4191432;28;20055;-58
2022/12/02 07:26:45;;;;;;;16.13;1.60;;;15.30;70.10;;;;;;4191182;28;20125;-58
2022/12/02 07:29:29;;;;;;;0.47;0.47;;;15.20;68.90;;;;;;4191161;28;20329;-58
2022/12/02 07:32:12;;;;;;;0.10;0.10;;;15.10;69.10;;;;;;4202666;27;20118;-58
2022/12/02 07:34:53;;;;;;;0.10;0.10;;;15.20;70.10;;;;;;4207537;27;20213;-58
2022/12/02 07:37:34;;;;;;;3.00;1.40;;;15.20;70.30;;;;;;4158090;28;20048;-57
2022/12/02 07:40:16;;;;;;;1.40;0.47;;;15.30;70.10;;;;;;4157816;28;20160;-58
2022/12/02 07:42:56;;;;;;;0.20;0.20;;;15.40;69.90;;;;;;4158055;28;20072;-58
2022/12/02 07:45:37;;;;;;;0.03;0.03;;;15.50;69.50;;;;;;4169115;28;20055;-58
2022/12/02 07:48:20;;;;;;;1.73;1.65;;;15.50;69.00;;;;;;4207710;27;20047;-57
2022/12/02 07:51:01;;;;;;;0.88;0.88;;;15.50;68.20;;;;;;4191092;28;20052;-56
2022/12/02 07:53:41;;;;;;;0.10;0.10;;;15.60;68.80;;;;;;4191431;28;20146;-57
2022/12/02 07:56:22;;;;;;;1.80;1.65;;;15.70;68.50;;;;;;4198418;27;20047;-57
2022/12/02 07:59:04;;;;;;;4.22;1.80;;;15.70;67.80;;;;;;4194011;27;20482;-58
2022/12/02 08:01:53;;;;;;;0.40;0.40;;;15.70;68.10;;;;;;4177379;28;20060;-58
2022/12/02 08:04:36;;;;;;;0.00;0.00;;;15.70;68.40;;;;;;4181751;28;20155;-59
2022/12/02 08:07:16;;;;;;;0.47;0.47;;;15.60;68.40;;;;;;4194005;28;20056;-58
2022/12/02 08:09:57;;;;;;;0.28;0.28;;;15.60;68.70;;;;;;4161012;28;20448;-57
2022/12/02 08:12:38;;;;;;;1.17;1.17;;;15.60;68.40;;;;;;4191600;28;20055;-58
2022/12/02 08:15:19;;;;;;;1.47;1.37;;;15.60;69.00;;;;;;4208391;28;20473;-58
2022/12/02 08:18:00;;;;;;;1.65;1.58;;;15.60;68.10;;;;;;4202948;28;20294;-58
2022/12/02 08:20:42;;;;;;;0.30;0.30;;;15.50;68.40;;;;;;4193474;28;20051;-57
2022/12/02 08:23:23;;;;;;;0.05;0.05;;;15.50;68.30;;;;;;4193916;28;20047;-57
2022/12/02 08:26:04;;;;;;;0.60;0.60;;;15.40;68.10;;;;;;4196490;28;20185;-56
2022/12/02 08:28:45;;;;;;;0.63;0.63;;;15.30;67.50;;;;;;4196019;28;20051;-55
2022/12/02 08:31:30;;;;;;;0.28;0.28;;;15.30;68.60;;;;;;4193653;28;20044;-56
2022/12/02 08:34:11;;;;;;;0.38;0.38;;;15.30;69.40;;;;;;4210327;28;20063;-54
2022/12/02 08:36:53;;;;;;;0.10;0.10;;;15.40;70.50;;;;;;4209210;28;20368;-56
2022/12/02 08:39:35;;;;;;;2.70;2.60;;;15.30;70.50;;;;;;4209167;28;20067;-56
2022/12/02 08:42:15;;;;;;;0.10;0.10;;;15.40;70.70;;;;;;4209255;28;20192;-54
2022/12/02 08:44:56;;;;;;;0.05;0.05;;;15.40;70.50;;;;;;4208224;28;20184;-56
2022/12/02 08:47:37;;;;;;;0.25;0.25;;;15.50;69.50;;;;;;4210135;28;20197;-56
2022/12/02 08:50:18;;;;;;;0.52;0.52;;;15.50;68.70;;;;;;4209592;28;20121;-56
2022/12/02 08:53:01;;;;;;;0.30;0.30;;;15.60;68.40;;;;;;4210427;28;20062;-55
2022/12/02 08:55:42;;;;;;;8.30;4.13;;;15.60;67.90;;;;;;4197657;28;20077;-57
2022/12/02 08:58:23;;;;;;;0.20;0.20;;;15.70;68.00;;;;;;4208670;28;20067;-55
2022/12/02 09:01:04;;;;;;;0.45;0.45;;;15.70;67.80;;;;;;4209801;28;20117;-55
2022/12/02 09:03:46;;;;;;;0.55;0.55;;;15.70;67.90;;;;;;4209175;28;20146;-56
2022/12/02 09:06:26;;;;;;;0.13;0.13;;;15.70;68.10;;;;;;4176284;28;20056;-55
2022/12/02 09:09:12;;;;;;;0.25;0.25;;;15.70;68.10;;;;;;4175185;28;20541;-57
2022/12/02 09:11:53;;;;;;;0.10;0.10;;;15.70;68.20;;;;;;4173908;28;20063;-55
2022/12/02 09:14:34;;;;;;;0.73;0.73;;;15.80;68.20;;;;;;4181984;27;20499;-56
2022/12/02 09:17:15;;;;;;;0.90;0.90;;;15.80;67.90;;;;;;4209747;27;20066;-57
2022/12/02 09:19:56;;;;;;;1.00;1.00;;;15.80;68.00;;;;;;4208949;27;20063;-55
2022/12/02 09:22:37;;;;;;;0.10;0.10;;;15.80;67.90;;;;;;4192818;28;20889;-56
2022/12/02 09:25:19;;;;;;;0.73;0.73;;;15.80;67.90;;;;;;4203081;28;20150;-54
2022/12/02 09:28:00;;;;;;;0.10;0.10;;;15.80;67.50;;;;;;4209140;28;20289;-57
2022/12/02 09:30:41;;;;;;;0.13;0.13;;;15.80;67.20;;;;;;4208952;28;20071;-56
2022/12/02 09:33:22;;;;;;;1.83;0.85;;;15.70;67.30;;;;;;4209137;28;20120;-55
2022/12/02 09:36:03;;;;;;;0.00;0.00;;;15.70;67.50;;;;;;4194400;28;20051;-56
2022/12/02 09:38:44;;;;;;;0.65;0.65;;;15.60;67.40;;;;;;4192622;28;20524;-56
2022/12/02 09:41:26;;;;;;;0.65;0.65;;;15.60;67.60;;;;;;4191968;28;20048;-56
2022/12/02 09:44:07;;;;;;;0.55;0.55;;;15.60;67.90;;;;;;4192299;28;20055;-57
2022/12/02 09:46:48;;;;;;;0.10;0.10;;;15.70;67.70;;;;;;4175783;28;20520;-55
2022/12/02 09:49:30;;;;;;;0.10;0.10;;;15.70;67.60;;;;;;4175656;28;20574;-56
2022/12/02 09:52:15;;;;;;;6.13;1.55;;;15.80;67.50;;;;;;4175769;28;20067;-60
2022/12/02 09:55:02;;;;;;;1.95;1.85;;;15.90;67.30;;;;;;4193218;28;20059;-59
2022/12/02 09:57:45;;;;;;;0.00;0.00;;;15.90;66.80;;;;;;4208827;28;20043;-59
2022/12/02 10:00:26;;;;;;;2.20;2.05;;;16.00;66.20;;;;;;4208971;28;20054;-58
2022/12/02 10:03:10;;;;;;;0.25;0.25;;;16.10;66.10;;;;;;4196445;28;20098;-59
2022/12/02 10:06:03;;;;;;;3.33;1.92;;;16.10;65.70;;;;;;4191027;28;20055;-59
2022/12/02 10:08:44;;;;;;;0.10;0.10;;;16.10;65.90;;;;;;4192171;28;20406;-59
2022/12/02 10:11:27;;;;;;;0.10;0.10;;;16.10;65.10;;;;;;4191930;28;20775;-59
2022/12/02 10:14:12;;;;;;;0.75;0.75;;;16.20;64.40;;;;;;4175617;28;20055;-58
2022/12/02 10:16:54;;;;;;;1.25;1.05;;;16.10;64.20;;;;;;4174667;28;20519;-59
2022/12/02 10:19:35;;;;;;;;;;;16.10;64.10;;;;;;4175662;28;20146;-59
2022/12/02 10:22:18;;;;;;;1.65;1.55;;;16.10;64.50;;;;;;4206817;27;19931;-59
2022/12/02 10:25:00;;;;;;;0.20;0.20;;;16.00;64.30;;;;;;4207563;27;20516;-58
2022/12/02 10:27:41;;;;;;;0.00;0.00;;;15.90;64.50;;;;;;4208719;27;20172;-59
2022/12/02 10:30:26;;;;;;;0.10;0.10;;;15.90;64.70;;;;;;4208890;27;20096;-58
2022/12/02 10:33:07;;;;;;;0.68;0.68;;;15.80;65.10;;;;;;4196652;27;20051;-59
2022/12/02 10:35:48;;;;;;;;;;;15.90;64.80;;;;;;4192329;28;20129;-59
2022/12/02 10:38:40;;;;;;;0.55;0.55;;;15.90;64.80;;;;;;4175357;28;20343;-59
2022/12/02 10:41:24;;;;;;;2.55;1.55;;;16.00;64.40;;;;;;4173757;28;20064;-58
2022/12/02 10:44:12;;;;;;;0.35;0.35;;;16.00;64.60;;;;;;4159008;28;20055;-59
2022/12/02 10:47:10;;;;;;;1.58;1.48;;;16.00;64.10;;;;;;4159018;28;20072;-59
2022/12/02 10:49:52;;;;;;;0.65;0.65;;;16.10;63.90;;;;;;4158128;28;20060;-60
2022/12/02 10:52:37;;;;;;;5.38;0.88;;;16.20;64.00;;;;;;4192507;28;20059;-58
2022/12/02 10:55:24;;;;;;;1.50;1.40;;;16.20;64.00;;;;;;4206275;27;20046;-59
2022/12/02 10:58:05;;;;;;;0.08;0.08;;;16.30;63.80;;;;;;4208496;27;20054;-59
2022/12/02 11:00:46;;;;;;;1.52;1.42;;;16.30;63.30;;;;;;4208411;27;20144;-58
2022/12/02 11:03:28;;;;;;;0.13;0.13;;;16.30;63.40;;;;;;4175122;28;20517;-58
2022/12/02 11:06:14;;;;;;;0.20;0.20;;;16.30;63.40;;;;;;4175495;28;20071;-59
2022/12/02 11:08:57;;;;;;;2.88;2.20;;;16.20;63.60;;;;;;4186540;28;20455;-59
2022/12/02 11:12:34;;;;;;;1.10;1.08;;;16.10;63.10;;;;;;4201840;27;20058;-60
2022/12/02 11:15:39;;;;;;;1.65;1.48;;;16.00;63.50;;;;;;4174802;28;20052;-59
2022/12/02 11:18:56;;;;;;;2.17;2.08;;;16.00;64.40;;;;;;4191038;28;20189;-59
2022/12/02 11:21:40;;;;;;;0.05;0.05;;;15.90;64.80;;;;;;4191131;28;20056;-58
2022/12/02 11:24:37;;;;;;;0.00;0.00;;;15.90;65.00;;;;;;4190834;28;20054;-57
2022/12/02 11:27:18;;;;;;;1.95;1.85;;;16.00;64.50;;;;;;4174514;28;20518;-58
2022/12/02 11:30:37;;;;;;;0.28;0.28;;;16.00;64.10;;;;;;4195312;28;20121;-58
2022/12/02 11:34:01;;;;;;;1.00;1.00;;;16.10;63.70;;;;;;4193969;28;20051;-58
2022/12/02 11:37:26;;;;;;;0.95;0.95;;;16.10;62.80;;;;;;4194025;28;20514;-59
2022/12/02 11:40:59;;;;;;;0.00;0.00;;;16.10;62.70;;;;;;4208101;28;20536;-58
2022/12/02 11:44:08;;;;;;;2.00;1.10;;;16.10;63.30;;;;;;4192770;28;20048;-58
2022/12/02 11:46:50;;;;;;;1.27;1.23;;;16.10;63.10;;;;;;4194098;28;20047;-59
2022/12/02 11:49:34;;;;;;;0.77;0.47;;;16.10;62.90;;;;;;4203139;28;20055;-59
2022/12/02 11:52:21;;;;;;;2.15;2.05;;;16.10;62.70;;;;;;4210705;28;20146;-59
2022/12/02 11:55:13;;;;;;;2.13;1.08;;;16.10;62.50;;;;;;4198557;28;20056;-59
2022/12/02 11:57:57;;;;;;;0.20;0.20;;;16.00;62.50;;;;;;4192692;28;20419;-57
2022/12/02 12:00:44;;;;;;;2.25;2.05;;;16.00;62.50;;;;;;4169595;28;20503;-59
2022/12/02 12:03:25;;;;;;;1.13;1.00;;;16.00;62.60;;;;;;4177672;28;20070;-59
2022/12/02 12:06:08;;;;;;;0.17;0.17;;;15.90;62.80;;;;;;4177784;28;20141;-59
2022/12/02 12:08:51;;;;;;;0.10;0.10;;;15.90;63.00;;;;;;4181399;28;20498;-59
2022/12/02 12:11:34;;;;;;;0.68;0.52;;;15.90;63.10;;;;;;4160736;28;20067;-59
2022/12/02 12:14:22;;;;;;;0.45;0.45;;;15.80;63.40;;;;;;4161251;28;20110;-59
2022/12/02 12:17:43;;;;;;;0.70;0.70;;;15.70;63.60;;;;;;4177439;28;20407;-59
2022/12/02 12:20:46;;;;;;;2.17;1.55;;;15.60;64.00;;;;;;4187721;28;20495;-59
2022/12/02 12:23:31;;;;;;;0.68;0.68;;;15.50;64.50;;;;;;4191849;28;20177;-58
2022/12/02 12:26:30;;;;;;;0.30;0.30;;;15.50;64.40;;;;;;4197292;27;20549;-59
2022/12/02 12:29:12;;;;;;;2.10;1.05;;;15.50;64.80;;;;;;4180456;28;20047;-59
2022/12/02 12:31:53;;;;;;;7.25;3.97;;;15.50;64.70;;;;;;4179872;28;20074;-58
2022/12/02 12:34:35;;;;;;;0.50;0.50;;;15.50;64.50;;;;;;4179694;28;20511;-59
2022/12/02 12:37:16;;;;;;;1.55;1.45;;;15.60;64.00;;;;;;4180321;28;20055;-59
2022/12/02 12:39:56;;;;;;;0.17;0.17;;;15.60;63.90;;;;;;4176009;28;20407;-59
2022/12/02 12:42:37;;;;;;;10.75;2.17;;;15.60;63.40;;;;;;4186236;28;20055;-58
2022/12/02 12:45:18;;;;;;;15.18;4.85;;;15.70;62.90;;;;;;4162846;28;20080;-58
2022/12/02 12:47:59;;;;;;;0.82;0.82;;;15.80;62.90;;;;;;4159683;28;20064;-59
2022/12/02 12:50:42;;;;;;;3.10;3.00;;;15.80;62.30;;;;;;4190240;28;20059;-60
2022/12/02 12:53:22;;;;;;;3.20;3.08;;;15.80;61.90;;;;;;4189951;28;20047;-60
2022/12/02 12:56:04;;;;;;;9.23;5.13;;;15.80;62.00;;;;;;4178973;28;20079;-60
2022/12/02 12:58:45;;;;;;;5.30;4.85;;;15.70;62.70;;;;;;4175995;27;20043;-62
2022/12/02 13:01:25;;;;;;;9.00;8.23;;;15.70;63.00;;;;;;4190158;28;20090;-63
2022/12/02 13:04:06;;;;;;;6.18;5.63;;;15.80;63.30;;;;;;4174632;28;20067;-63
2022/12/02 13:06:49;;;;;;;4.45;4.13;;;15.80;63.00;;;;;;4178116;28;20060;-64
2022/12/02 13:09:29;;;;;;;6.15;5.65;;;15.90;63.00;;;;;;4173179;28;20464;-63
2022/12/02 13:12:10;;;;;;;23.37;4.07;;;15.90;63.00;;;;;;4172694;28;20056;-64
2022/12/02 13:14:52;;;;;;;2.80;2.70;;;15.90;63.70;;;;;;4171774;28;21169;-63
2022/12/02 13:17:33;;;;;;;6.03;5.65;;;15.90;64.70;;;;;;4175825;28;20433;-63
2022/12/02 13:20:15;;;;;;;5.20;4.82;;;16.10;64.80;;;;;;4171920;28;20131;-63
2022/12/02 13:22:57;;;;;;;10.07;7.82;;;16.20;64.40;;;;;;4173157;28;20197;-63
2022/12/02 13:25:38;;;;;;;10.38;5.35;;;16.30;64.70;;;;;;4174795;28;20122;-63
2022/12/02 13:28:19;;;;;;;2.72;2.53;;;16.30;64.40;;;;;;4179402;28;20060;-63
2022/12/02 13:31:00;;;;;;;5.20;4.80;;;16.30;64.00;;;;;;4175199;28;20055;-63
2022/12/02 13:33:40;;;;;;;1.75;1.73;;;16.30;63.60;;;;;;4182233;28;20747;-63
2022/12/02 13:36:22;;;;;;;1.17;1.17;;;16.40;62.80;;;;;;4177294;28;20522;-63
2022/12/02 13:39:04;;;;;;;15.10;6.75;;;16.40;63.00;;;;;;4196639;27;20076;-63
2022/12/02 13:41:46;;;;;;;2.15;2.05;;;16.40;62.80;;;;;;4173885;28;20550;-63
2022/12/02 13:44:28;;;;;;;1.80;1.70;;;16.30;62.50;;;;;;4173529;28;20126;-63
2022/12/02 13:47:09;;;;;;;5.47;5.07;;;16.20;62.50;;;;;;4181592;28;20086;-63
2022/12/02 13:49:49;;;;;;;3.47;3.35;;;16.10;62.40;;;;;;4173949;28;20124;-63
2022/12/02 13:52:31;;;;;;;4.97;4.68;;;16.00;63.20;;;;;;4171630;28;20048;-63
2022/12/02 13:55:13;;;;;;;3.22;3.03;;;15.90;63.60;;;;;;4184882;28;20448;-64
2022/12/02 13:57:55;;;;;;;3.45;3.03;;;15.90;63.30;;;;;;4176727;28;20049;-64
2022/12/02 14:00:37;;;;;;;2.47;1.77;;;15.90;63.70;;;;;;4175078;28;20055;-64
2022/12/02 14:03:17;;;;;;;3.13;2.92;;;15.80;63.90;;;;;;4177843;28;20060;-63
2022/12/02 14:05:58;;;;;;;0.70;0.70;;;15.80;63.70;;;;;;4172866;28;20113;-63
2022/12/02 14:08:39;;;;;;;6.88;5.60;;;15.70;64.10;;;;;;4182692;28;20059;-64
2022/12/02 14:11:22;;;;;;;1.92;1.92;;;15.60;64.10;;;;;;4189062;28;20059;-64
2022/12/02 14:14:03;;;;;;;0.57;0.57;;;15.50;65.10;;;;;;4181120;28;20150;-63